Time;durP1;ratioP1;P1;durP2;ratioP2;P2;SDS_P1;SDS_P2;PMS_P1;PMS_P2;Temp;Humidity;BMP_temperature;BMP_pressure;BME280_temperature;BME280_humidity;BME280_pressure;Samples;Min_cycle;Max_cycle;Signal;HPM_P1;HPM_P2
2024/01/01 00:01:02;;;;;;;0.75;0.40;;;;;;;;;;5030137;28;20086;-71
2024/01/01 00:03:28;;;;;;;7.78;1.27;;;10.00;99.90;;;;;;5029548;28;20552;-73
2024/01/01 00:05:54;;;;;;;4.78;0.85;;;;;;;;;;5035211;28;20041;-72
2024/01/01 00:08:19;;;;;;;5.05;0.73;;;9.70;99.90;;;;;;5036303;28;20045;-72
2024/01/01 00:10:48;;;;;;;1.58;1.00;;;;;;;;;;5029479;28;20116;-73
2024/01/01 00:13:14;;;;;;;6.40;1.10;;;;;;;;;;5039006;28;20068;-72
2024/01/01 00:15:40;;;;;;;1.83;1.13;;;;;;;;;;5030639;28;20309;-73
2024/01/01 00:18:06;;;;;;;4.53;1.17;;;;;;;;;;5027923;28;20030;-73
2024/01/01 00:20:31;;;;;;;3.45;1.35;;;9.60;99.90;;;;;;5033400;28;20036;-73
2024/01/01 00:22:57;;;;;;;1.02;0.75;;;9.60;99.90;;;;;;5030515;28;20457;-73
2024/01/01 00:25:23;;;;;;;2.78;1.48;;;9.50;99.90;;;;;;5033465;28;20065;-72
2024/01/01 00:27:50;;;;;;;4.05;0.85;;;9.50;99.90;;;;;;5012482;28;20053;-71
2024/01/01 00:30:16;;;;;;;4.10;1.48;;;9.40;99.90;;;;;;5006928;28;20034;-72
2024/01/01 00:32:41;;;;;;;6.53;1.33;;;9.40;99.90;;;;;;5009633;28;20042;-73
2024/01/01 00:35:07;;;;;;;5.22;1.10;;;9.40;99.90;;;;;;5011910;28;20383;-72
2024/01/01 00:37:41;;;;;;;0.82;0.47;;;;;;;;;;5006784;28;20018;-72
2024/01/01 00:40:07;;;;;;;8.45;1.30;;;9.30;99.90;;;;;;5012015;28;20029;-72
2024/01/01 00:42:32;;;;;;;4.93;1.80;;;9.10;99.90;;;;;;5018038;28;20076;-70
2024/01/01 00:44:58;;;;;;;1.20;0.50;;;9.00;99.90;;;;;;5011164;28;20041;-72
2024/01/01 00:47:24;;;;;;;6.75;0.80;;;8.90;99.90;;;;;;5010260;28;20045;-71
2024/01/01 00:49:49;;;;;;;1.02;0.60;;;8.80;99.90;;;;;;5010250;28;20179;-71
2024/01/01 00:52:15;;;;;;;5.32;1.05;;;8.80;99.90;;;;;;5009866;28;20030;-71
2024/01/01 00:54:40;;;;;;;19.98;1.80;;;8.90;99.90;;;;;;5014701;28;20037;-72
2024/01/01 00:57:06;;;;;;;4.18;0.82;;;8.90;99.90;;;;;;5009819;28;20026;-71
2024/01/01 00:59:32;;;;;;;4.80;1.50;;;8.90;99.90;;;;;;5010973;28;20041;-72
2024/01/01 01:01:57;;;;;;;1.45;0.55;;;8.80;99.90;;;;;;5010309;28;20041;-71
2024/01/01 01:04:23;;;;;;;0.52;0.30;;;8.70;99.90;;;;;;5011180;28;20100;-72
2024/01/01 01:06:48;;;;;;;4.63;0.60;;;8.70;99.90;;;;;;5015492;28;20038;-72
2024/01/01 01:09:14;;;;;;;4.68;1.80;;;8.60;99.90;;;;;;5012935;28;20064;-72
2024/01/01 01:11:40;;;;;;;3.35;1.50;;;8.60;99.90;;;;;;5012357;28;20116;-73
2024/01/01 01:14:06;;;;;;;6.55;0.68;;;8.70;99.90;;;;;;5017168;28;20025;-71
2024/01/01 01:16:32;;;;;;;0.50;0.50;;;8.80;99.90;;;;;;5013822;28;20037;-71
2024/01/01 01:18:59;;;;;;;6.65;1.25;;;8.90;99.90;;;;;;5014532;28;20037;-71
2024/01/01 01:21:25;;;;;;;5.90;1.27;;;8.90;99.90;;;;;;5016601;28;20026;-73
2024/01/01 01:23:51;;;;;;;7.10;1.27;;;9.00;99.90;;;;;;5010550;28;20060;-71
2024/01/01 01:26:16;;;;;;;2.10;0.93;;;9.00;99.90;;;;;;5023446;28;20053;-72
2024/01/01 01:28:42;;;;;;;1.55;0.95;;;9.00;99.90;;;;;;5034536;28;20489;-73
2024/01/01 01:31:08;;;;;;;3.50;0.85;;;9.10;99.90;;;;;;5028723;28;20107;-72
2024/01/01 01:33:33;;;;;;;6.65;1.02;;;9.00;99.90;;;;;;5031308;28;20041;-73
2024/01/01 01:36:00;;;;;;;11.93;0.80;;;9.00;99.90;;;;;;5034227;28;20029;-72
2024/01/01 01:38:26;;;;;;;4.07;0.40;;;9.00;99.90;;;;;;5036018;28;20031;-72
2024/01/01 01:40:52;;;;;;;3.60;1.02;;;9.10;99.90;;;;;;5038381;28;20029;-72
2024/01/01 01:43:21;;;;;;;3.20;0.85;;;9.10;99.90;;;;;;5032661;28;20025;-73
2024/01/01 01:45:48;;;;;;;1.17;0.40;;;9.20;99.90;;;;;;5036075;28;20036;-72
2024/01/01 01:48:15;;;;;;;0.73;0.65;;;9.10;99.90;;;;;;5032102;28;20068;-71
2024/01/01 01:50:41;;;;;;;6.47;1.00;;;9.10;99.90;;;;;;5030137;28;20045;-72
2024/01/01 01:53:07;;;;;;;3.92;0.52;;;9.00;99.90;;;;;;5032886;28;20034;-71
2024/01/01 01:55:32;;;;;;;3.83;0.65;;;9.00;99.90;;;;;;5036303;28;20052;-72
2024/01/01 01:57:58;;;;;;;10.63;0.75;;;9.00;99.90;;;;;;5027412;28;20029;-71
2024/01/01 02:00:24;;;;;;;1.85;1.10;;;8.90;99.90;;;;;;5037436;28;20102;-72
2024/01/01 02:02:50;;;;;;;6.93;1.15;;;8.90;99.90;;;;;;5035535;28;20033;-70
2024/01/01 02:05:16;;;;;;;1.23;0.57;;;8.80;99.90;;;;;;5030260;28;20041;-72
2024/01/01 02:07:43;;;;;;;1.88;0.63;;;8.80;99.90;;;;;;5039411;28;20041;-71
2024/01/01 02:10:09;;;;;;;9.85;0.95;;;8.70;99.90;;;;;;5031842;28;20386;-72
2024/01/01 02:12:34;;;;;;;4.47;1.17;;;8.60;99.90;;;;;;5034921;28;20037;-72
2024/01/01 02:15:00;;;;;;;6.55;1.35;;;8.70;99.90;;;;;;5041079;28;20032;-72
2024/01/01 02:17:26;;;;;;;0.73;0.70;;;8.60;99.90;;;;;;5031932;28;20032;-72
2024/01/01 02:19:51;;;;;;;1.02;0.70;;;8.60;99.90;;;;;;5047619;28;20032;-71
2024/01/01 02:22:17;;;;;;;4.47;0.73;;;8.50;99.90;;;;;;5056619;28;20025;-72
2024/01/01 02:24:43;;;;;;;1.08;0.35;;;8.50;99.90;;;;;;5029704;28;20037;-71
2024/01/01 02:27:08;;;;;;;0.85;0.30;;;8.50;99.90;;;;;;5030099;28;20123;-72
2024/01/01 02:29:34;;;;;;;3.15;1.50;;;8.40;99.90;;;;;;5036747;28;20021;-71
2024/01/01 02:31:59;;;;;;;1.42;1.33;;;8.30;99.90;;;;;;5034190;28;20051;-73
2024/01/01 02:34:27;;;;;;;0.45;0.45;;;8.30;99.90;;;;;;5034073;28;20039;-73
2024/01/01 02:36:53;;;;;;;5.80;0.63;;;8.20;99.90;;;;;;5029887;28;20068;-72
2024/01/01 02:39:19;;;;;;;2.70;1.20;;;8.10;99.90;;;;;;5040720;28;20037;-72
2024/01/01 02:41:45;;;;;;;3.40;0.77;;;8.10;99.90;;;;;;5038832;28;20029;-73
2024/01/01 02:44:11;;;;;;;2.72;0.50;;;;;;;;;;5031399;28;20044;-71
2024/01/01 02:46:36;;;;;;;3.88;0.40;;;8.30;99.90;;;;;;5037078;28;20037;-72
2024/01/01 02:49:02;;;;;;;1.10;0.25;;;8.30;99.90;;;;;;5042219;28;20389;-74
2024/01/01 02:51:28;;;;;;;0.22;0.22;;;8.20;99.90;;;;;;5029564;28;20049;-72
2024/01/01 02:53:53;;;;;;;2.22;0.30;;;8.30;99.90;;;;;;5035156;28;20071;-71
2024/01/01 02:56:21;;;;;;;1.33;0.38;;;8.40;99.90;;;;;;5033535;28;20486;-72
2024/01/01 02:58:47;;;;;;;4.10;1.35;;;8.40;99.90;;;;;;5029936;28;20086;-71
2024/01/01 03:01:13;;;;;;;5.18;1.48;;;8.30;99.90;;;;;;5032940;28;20032;-72
2024/01/01 03:03:39;;;;;;;3.38;0.77;;;8.20;99.90;;;;;;5028607;28;20026;-72
2024/01/01 03:06:07;;;;;;;10.13;0.70;;;8.20;99.90;;;;;;5034192;28;20379;-72
2024/01/01 03:08:37;;;;;;;15.02;1.10;;;8.10;99.90;;;;;;5031044;28;20040;-73
2024/01/01 03:11:04;;;;;;;5.90;0.50;;;8.10;99.90;;;;;;5029120;28;20035;-72
2024/01/01 03:13:30;;;;;;;2.33;0.63;;;8.10;99.90;;;;;;5032847;28;20473;-71
2024/01/01 03:15:56;;;;;;;13.35;0.85;;;8.20;99.90;;;;;;5031610;28;20056;-72
2024/01/01 03:18:21;;;;;;;0.00;0.00;;;8.20;99.90;;;;;;5027579;28;20038;-72
2024/01/01 03:20:47;;;;;;;1.88;0.47;;;8.20;99.90;;;;;;5034810;28;20025;-74
2024/01/01 03:23:12;;;;;;;1.02;0.35;;;8.20;99.90;;;;;;5030949;28;20025;-71
2024/01/01 03:25:38;;;;;;;0.73;0.43;;;8.10;99.90;;;;;;5035498;28;20498;-72
2024/01/01 03:28:04;;;;;;;5.82;1.08;;;8.10;99.90;;;;;;5029431;28;20044;-73
2024/01/01 03:30:29;;;;;;;0.85;0.40;;;8.20;99.90;;;;;;5036097;28;20493;-72
2024/01/01 03:32:55;;;;;;;0.20;0.20;;;8.20;99.90;;;;;;5032486;28;20040;-71
2024/01/01 03:35:22;;;;;;;1.73;0.75;;;8.20;99.90;;;;;;5034254;28;20112;-73
2024/01/01 03:37:48;;;;;;;2.92;0.85;;;8.20;99.90;;;;;;5023698;28;20428;-71
2024/01/01 03:40:13;;;;;;;1.27;0.60;;;8.30;99.90;;;;;;5031349;28;20033;-72
2024/01/01 03:42:39;;;;;;;1.08;0.57;;;8.30;99.90;;;;;;5033466;28;20923;-72
2024/01/01 03:45:05;;;;;;;12.43;1.52;;;8.40;99.90;;;;;;5027571;28;20023;-72
2024/01/01 03:47:33;;;;;;;0.30;0.30;;;8.50;99.90;;;;;;5036987;28;20087;-72
2024/01/01 03:49:58;;;;;;;5.68;0.73;;;8.60;99.90;;;;;;5033105;28;20034;-72
2024/01/01 03:52:24;;;;;;;3.80;0.95;;;8.50;99.90;;;;;;5028635;28;20040;-72
2024/01/01 03:54:50;;;;;;;2.80;0.55;;;8.40;99.90;;;;;;5035506;28;20116;-72
2024/01/01 03:57:16;;;;;;;3.65;0.98;;;8.30;99.90;;;;;;5032241;28;20159;-73
2024/01/01 03:59:42;;;;;;;2.90;0.70;;;8.20;99.90;;;;;;5034915;28;20081;-73
2024/01/01 04:02:10;;;;;;;0.68;0.35;;;;;;;;;;5029744;28;20064;-72
2024/01/01 04:04:36;;;;;;;4.53;0.50;;;;;;;;;;5028636;28;20026;-71
2024/01/01 04:07:02;;;;;;;2.40;0.57;;;;;;;;;;5036464;28;20039;-71
2024/01/01 04:09:36;;;;;;;7.68;0.50;;;;;;;;;;5031481;28;20498;-72
2024/01/01 04:12:02;;;;;;;2.65;1.13;;;8.40;99.90;;;;;;5024492;28;20033;-71
2024/01/01 04:14:27;;;;;;;5.95;0.93;;;8.20;99.90;;;;;;5036507;28;20033;-72
2024/01/01 04:16:53;;;;;;;7.35;0.70;;;8.20;99.90;;;;;;5027487;28;20350;-71
2024/01/01 04:19:18;;;;;;;0.77;0.50;;;8.20;99.90;;;;;;5030439;28;20029;-71
2024/01/01 04:21:44;;;;;;;5.10;0.63;;;8.00;99.90;;;;;;5033393;28;20503;-72
2024/01/01 04:24:10;;;;;;;9.57;0.43;;;8.00;99.90;;;;;;5031280;28;20025;-71
2024/01/01 04:26:39;;;;;;;3.17;1.83;;;8.00;99.90;;;;;;5033457;28;20057;-73
2024/01/01 04:29:04;;;;;;;7.30;1.05;;;8.00;99.90;;;;;;5034449;28;20106;-72
2024/01/01 04:31:30;;;;;;;0.60;0.28;;;8.00;99.90;;;;;;5028836;28;20505;-70
2024/01/01 04:33:56;;;;;;;3.97;1.15;;;8.10;99.90;;;;;;5030326;28;20087;-73
2024/01/01 04:36:23;;;;;;;12.85;0.80;;;;;;;;;;5035009;28;20371;-73
2024/01/01 04:38:48;;;;;;;7.05;0.93;;;8.00;99.90;;;;;;5034832;28;20040;-72
2024/01/01 04:41:14;;;;;;;0.60;0.35;;;8.20;99.90;;;;;;5041247;28;20179;-72
2024/01/01 04:43:40;;;;;;;7.75;0.60;;;8.20;99.90;;;;;;5039077;28;20160;-72
2024/01/01 04:46:07;;;;;;;2.35;1.08;;;8.20;99.90;;;;;;5033858;28;20084;-72
2024/01/01 04:48:34;;;;;;;0.60;0.50;;;8.20;99.90;;;;;;5034981;28;20040;-73
2024/01/01 04:51:00;;;;;;;6.13;1.35;;;8.30;99.90;;;;;;5036390;28;20271;-73
2024/01/01 04:53:26;;;;;;;1.20;0.77;;;8.30;99.90;;;;;;5033584;28;20052;-72
2024/01/01 04:55:51;;;;;;;13.52;2.47;;;8.30;99.90;;;;;;5034796;28;20082;-73
2024/01/01 04:58:17;;;;;;;0.95;0.50;;;8.20;99.90;;;;;;5037029;28;20409;-71
2024/01/01 05:00:43;;;;;;;11.80;0.95;;;8.20;99.90;;;;;;5053535;28;20029;-71
2024/01/01 05:03:08;;;;;;;6.38;1.42;;;8.20;99.90;;;;;;5021011;28;20489;-72
2024/01/01 05:05:34;;;;;;;2.85;0.82;;;8.20;99.90;;;;;;5029747;28;20364;-71
2024/01/01 05:08:00;;;;;;;1.75;0.82;;;8.20;99.90;;;;;;5037514;28;20404;-72
2024/01/01 05:10:26;;;;;;;2.38;0.55;;;8.30;99.90;;;;;;5027515;28;20025;-72
2024/01/01 05:12:53;;;;;;;6.00;1.35;;;8.30;99.90;;;;;;5036174;28;20330;-71
2024/01/01 05:15:18;;;;;;;14.55;1.27;;;8.20;99.90;;;;;;5036606;28;20064;-72
2024/01/01 05:17:47;;;;;;;13.43;0.73;;;;;;;;;;5036427;28;20108;-72
2024/01/01 05:20:13;;;;;;;0.85;0.82;;;8.10;99.90;;;;;;5030722;28;20171;-71
2024/01/01 05:22:40;;;;;;;1.70;1.00;;;8.20;99.90;;;;;;5035569;28;20612;-71
2024/01/01 05:25:06;;;;;;;1.73;0.65;;;8.20;99.90;;;;;;5032024;28;20021;-72
2024/01/01 05:27:32;;;;;;;10.63;1.85;;;8.20;99.90;;;;;;5038677;28;20195;-72
2024/01/01 05:29:57;;;;;;;4.13;1.02;;;8.20;99.90;;;;;;5040453;28;20116;-72
2024/01/01 05:32:23;;;;;;;7.88;1.27;;;8.30;99.90;;;;;;5032747;28;20047;-72
2024/01/01 05:34:49;;;;;;;0.57;0.43;;;8.20;99.90;;;;;;5035396;28;20041;-72
2024/01/01 05:37:14;;;;;;;3.03;0.70;;;8.20;99.90;;;;;;5035659;28;20552;-71
2024/01/01 05:39:40;;;;;;;0.55;0.30;;;8.20;99.90;;;;;;5038458;28;20151;-71
2024/01/01 05:42:06;;;;;;;0.60;0.40;;;8.20;99.90;;;;;;5039097;28;20028;-71
2024/01/01 05:44:31;;;;;;;10.48;1.40;;;8.20;99.90;;;;;;5031313;28;20025;-72
2024/01/01 05:46:57;;;;;;;1.70;1.38;;;8.10;99.90;;;;;;5037098;28;20098;-72
2024/01/01 05:49:24;;;;;;;7.47;1.00;;;8.10;99.90;;;;;;5037172;28;20038;-71
2024/01/01 05:51:50;;;;;;;10.60;1.20;;;8.00;99.90;;;;;;5027586;28;20116;-71
2024/01/01 05:54:16;;;;;;;1.33;0.93;;;8.00;99.90;;;;;;5036191;28;20441;-72
2024/01/01 05:56:42;;;;;;;1.50;0.52;;;8.00;99.90;;;;;;5034976;28;20037;-71
2024/01/01 05:59:08;;;;;;;1.98;0.80;;;8.00;99.90;;;;;;5027843;28;20035;-71
2024/01/01 06:01:33;;;;;;;14.45;0.95;;;8.00;99.90;;;;;;5039430;28;20037;-72
2024/01/01 06:03:59;;;;;;;2.13;0.70;;;7.90;99.90;;;;;;5033209;28;20485;-72
2024/01/01 06:06:25;;;;;;;7.43;1.02;;;7.90;99.90;;;;;;5035581;28;20040;-72
2024/01/01 06:08:51;;;;;;;5.82;0.73;;;7.90;99.90;;;;;;5038808;28;20059;-71
2024/01/01 06:11:17;;;;;;;2.55;0.65;;;7.90;99.90;;;;;;5036608;28;20036;-72
2024/01/01 06:13:43;;;;;;;3.80;0.80;;;7.90;99.90;;;;;;5034449;28;20091;-71
2024/01/01 06:16:08;;;;;;;0.93;0.63;;;8.00;99.90;;;;;;5036428;28;20295;-71
2024/01/01 06:18:34;;;;;;;5.07;0.63;;;8.10;99.90;;;;;;5016187;28;20385;-73
2024/01/01 06:21:00;;;;;;;7.55;1.65;;;8.20;99.90;;;;;;5031435;28;20382;-71
2024/01/01 06:23:25;;;;;;;0.90;0.45;;;8.20;99.90;;;;;;5032347;28;20321;-71
2024/01/01 06:25:52;;;;;;;4.65;1.20;;;8.20;99.90;;;;;;5021865;28;20050;-72
2024/01/01 06:28:18;;;;;;;6.88;1.35;;;8.10;99.90;;;;;;5027284;28;20064;-71
2024/01/01 06:30:44;;;;;;;23.08;2.45;;;8.20;99.90;;;;;;5035272;28;20043;-72
2024/01/01 06:33:10;;;;;;;6.45;0.98;;;8.10;99.90;;;;;;5034430;28;20025;-71
2024/01/01 06:35:35;;;;;;;11.02;1.52;;;8.10;99.90;;;;;;5040142;28;20048;-71
2024/01/01 06:38:02;;;;;;;3.75;0.45;;;8.20;99.90;;;;;;5034004;28;20497;-72
2024/01/01 06:40:28;;;;;;;14.02;1.08;;;8.10;99.90;;;;;;5039051;28;20500;-71
2024/01/01 06:42:54;;;;;;;1.38;0.52;;;8.20;99.90;;;;;;5041803;28;20106;-71
2024/01/01 06:45:19;;;;;;;5.43;1.40;;;8.10;99.90;;;;;;5030728;28;20516;-72
2024/01/01 06:47:45;;;;;;;2.95;1.23;;;8.20;99.90;;;;;;5035143;28;20028;-72
2024/01/01 06:50:11;;;;;;;3.22;0.80;;;8.20;99.90;;;;;;5034117;28;20021;-71
2024/01/01 06:52:37;;;;;;;11.73;1.13;;;8.20;99.90;;;;;;5027066;28;20065;-70
2024/01/01 06:55:03;;;;;;;6.90;0.95;;;8.20;99.90;;;;;;5032650;28;20115;-71
2024/01/01 06:57:29;;;;;;;2.33;0.70;;;8.20;99.90;;;;;;5035559;28;20496;-74
2024/01/01 06:59:55;;;;;;;5.45;0.90;;;8.30;99.90;;;;;;5030782;28;20435;-72
2024/01/01 07:02:22;;;;;;;7.65;1.08;;;8.20;99.90;;;;;;5022366;28;20100;-72
2024/01/01 07:04:47;;;;;;;6.80;1.02;;;8.30;99.90;;;;;;5029110;28;20068;-71
2024/01/01 07:07:14;;;;;;;10.82;1.40;;;8.30;99.90;;;;;;5031949;28;20104;-71
2024/01/01 07:09:41;;;;;;;0.90;0.65;;;8.30;99.90;;;;;;5021871;28;20017;-71
2024/01/01 07:12:24;;;;;;;1.58;0.40;;;8.30;99.90;;;;;;5029619;28;20021;-72
2024/01/01 07:14:51;;;;;;;11.05;1.00;;;8.30;99.90;;;;;;5030516;28;20025;-72
2024/01/01 07:17:19;;;;;;;14.90;1.52;;;8.20;99.90;;;;;;5034889;28;20478;-72
2024/01/01 07:19:45;;;;;;;7.70;1.38;;;8.20;99.90;;;;;;5030876;28;20048;-72
2024/01/01 07:22:10;;;;;;;5.28;0.88;;;8.30;99.90;;;;;;5034469;28;20032;-72
2024/01/01 07:24:36;;;;;;;11.85;1.60;;;8.30;99.90;;;;;;5031236;28;21056;-74
2024/01/01 07:27:02;;;;;;;1.65;0.73;;;8.40;99.90;;;;;;5032190;28;20041;-72
2024/01/01 07:29:30;;;;;;;1.70;0.63;;;8.30;99.90;;;;;;5036445;28;20082;-71
2024/01/01 07:31:56;;;;;;;0.90;0.55;;;8.30;99.90;;;;;;5032102;28;20040;-71
2024/01/01 07:34:21;;;;;;;15.65;0.85;;;8.30;99.90;;;;;;5031649;28;20524;-72
2024/01/01 07:36:48;;;;;;;2.42;0.65;;;8.40;99.90;;;;;;5048276;28;20041;-71
2024/01/01 07:39:19;;;;;;;4.63;1.00;;;8.30;99.90;;;;;;5048823;28;20063;-71
2024/01/01 07:41:45;;;;;;;1.33;0.35;;;8.30;99.90;;;;;;5031448;28;20025;-70
2024/01/01 07:44:11;;;;;;;2.42;0.45;;;8.30;99.90;;;;;;5033981;28;20040;-71
2024/01/01 07:46:37;;;;;;;2.70;1.20;;;8.40;99.90;;;;;;5027008;28;20218;-72
2024/01/01 07:49:05;;;;;;;8.15;1.65;;;8.40;99.90;;;;;;5036831;28;20491;-71
2024/01/01 07:51:31;;;;;;;5.05;1.13;;;8.40;99.90;;;;;;5033781;28;20112;-72
2024/01/01 07:53:57;;;;;;;6.82;1.92;;;8.50;99.90;;;;;;5028465;28;20021;-71
2024/01/01 07:56:22;;;;;;;1.70;1.27;;;8.40;99.90;;;;;;5032596;28;20049;-72
2024/01/01 07:58:49;;;;;;;10.88;0.88;;;8.50;99.90;;;;;;5029355;28;20566;-72
2024/01/01 08:01:16;;;;;;;5.53;1.77;;;8.50;99.90;;;;;;5033331;28;20149;-71
2024/01/01 08:03:42;;;;;;;5.85;1.98;;;8.50;99.90;;;;;;5032760;28;20018;-71
2024/01/01 08:06:08;;;;;;;7.38;0.77;;;8.60;99.90;;;;;;5030158;28;20437;-73
2024/01/01 08:08:33;;;;;;;5.93;1.10;;;8.60;99.90;;;;;;5038621;28;20094;-71
2024/01/01 08:10:59;;;;;;;6.50;0.47;;;8.70;99.90;;;;;;5035893;28;20044;-72
2024/01/01 08:13:24;;;;;;;16.73;1.83;;;8.60;99.90;;;;;;5033598;28;20082;-71
2024/01/01 08:15:50;;;;;;;8.98;1.13;;;8.60;99.90;;;;;;5039059;28;20045;-72
2024/01/01 08:18:16;;;;;;;0.75;0.50;;;8.60;99.90;;;;;;5039153;28;20618;-71
2024/01/01 08:20:43;;;;;;;7.13;1.35;;;8.60;99.90;;;;;;5037043;28;20017;-72
2024/01/01 08:23:09;;;;;;;3.50;0.60;;;8.60;99.90;;;;;;5039008;28;20265;-71
2024/01/01 08:25:35;;;;;;;9.07;1.30;;;8.60;99.90;;;;;;5032002;28;20076;-71
2024/01/01 08:28:01;;;;;;;17.65;1.45;;;8.60;99.90;;;;;;5036136;28;20191;-73
2024/01/01 08:30:26;;;;;;;8.65;0.88;;;8.70;99.90;;;;;;5033295;28;20033;-71
2024/01/01 08:32:52;;;;;;;6.72;0.85;;;8.60;99.90;;;;;;5031057;28;20777;-71
2024/01/01 08:35:18;;;;;;;2.42;0.43;;;8.70;99.90;;;;;;5035433;28;20160;-72
2024/01/01 08:37:44;;;;;;;0.75;0.60;;;8.70;99.90;;;;;;5039484;28;20119;-72
2024/01/01 08:40:11;;;;;;;6.47;0.85;;;8.70;99.90;;;;;;5038016;28;20018;-71
2024/01/01 08:42:37;;;;;;;1.63;0.40;;;8.70;99.90;;;;;;5036066;28;20116;-73
2024/01/01 08:45:03;;;;;;;3.13;0.95;;;8.70;99.90;;;;;;5035474;28;20033;-71
2024/01/01 08:47:29;;;;;;;6.88;0.52;;;8.70;99.90;;;;;;5033380;28;20470;-71
2024/01/01 08:49:55;;;;;;;2.63;0.57;;;8.60;99.90;;;;;;5040487;28;20060;-72
2024/01/01 08:52:21;;;;;;;3.42;0.85;;;8.70;99.90;;;;;;5034471;28;20152;-72
2024/01/01 08:54:46;;;;;;;3.83;0.50;;;8.70;99.90;;;;;;5040559;28;20029;-71
2024/01/01 08:57:12;;;;;;;3.88;0.63;;;8.70;99.90;;;;;;5032926;28;21181;-70
2024/01/01 08:59:39;;;;;;;4.95;1.10;;;8.70;99.90;;;;;;5029397;28;20064;-71
2024/01/01 09:02:06;;;;;;;11.25;0.70;;;8.60;99.90;;;;;;5038553;28;20028;-71
2024/01/01 09:04:32;;;;;;;1.75;0.43;;;8.80;99.90;;;;;;5032358;28;20485;-71
2024/01/01 09:07:00;;;;;;;2.45;1.60;;;8.80;99.90;;;;;;5029340;28;20040;-71
2024/01/01 09:09:27;;;;;;;8.93;1.27;;;8.90;99.90;;;;;;5037232;28;20029;-72
2024/01/01 09:11:52;;;;;;;10.35;1.25;;;8.80;99.90;;;;;;5034783;28;20366;-71
2024/01/01 09:14:18;;;;;;;2.88;0.30;;;8.90;99.90;;;;;;5028417;28;20032;-71
2024/01/01 09:16:44;;;;;;;4.70;1.05;;;8.90;99.90;;;;;;5038676;28;20432;-72
2024/01/01 09:19:09;;;;;;;9.07;1.25;;;9.00;99.90;;;;;;5032659;28;20478;-72
2024/01/01 09:21:38;;;;;;;0.95;0.85;;;9.10;99.90;;;;;;5034587;28;20564;-72
2024/01/01 09:24:04;;;;;;;0.45;0.40;;;;;;;;;;5038797;28;20028;-72
2024/01/01 09:26:30;;;;;;;4.03;0.80;;;9.00;99.90;;;;;;5029860;28;20583;-72
2024/01/01 09:28:56;;;;;;;2.03;0.73;;;9.00;99.90;;;;;;5033782;28;20040;-72
2024/01/01 09:31:22;;;;;;;1.98;0.80;;;9.00;99.90;;;;;;5037660;28;20521;-71
2024/01/01 09:33:48;;;;;;;1.85;0.40;;;9.10;99.90;;;;;;5032709;28;20033;-71
2024/01/01 09:36:14;;;;;;;0.17;0.15;;;9.00;99.90;;;;;;5035400;28;20030;-72
2024/01/01 09:38:41;;;;;;;6.00;0.43;;;9.10;99.90;;;;;;5036001;28;20029;-72
2024/01/01 09:41:11;;;;;;;2.55;0.30;;;9.10;99.90;;;;;;5037013;28;20036;-71
2024/01/01 09:43:37;;;;;;;2.70;0.32;;;;;;;;;;5038743;28;20120;-70
2024/01/01 09:46:03;;;;;;;6.63;1.42;;;;;;;;;;5031543;28;20564;-71
2024/01/01 09:48:29;;;;;;;2.38;0.40;;;;;;;;;;5031276;28;20463;-72
2024/01/01 09:50:58;;;;;;;3.40;0.22;;;;;;;;;;5032769;28;20448;-72
2024/01/01 09:53:24;;;;;;;2.28;0.70;;;9.30;99.90;;;;;;5031880;28;20021;-72
2024/01/01 09:55:52;;;;;;;0.32;0.30;;;10.20;99.90;;;;;;5034791;28;20037;-72
2024/01/01 09:58:20;;;;;;;7.05;0.57;;;;;;;;;;5037057;28;20029;-71
2024/01/01 10:00:48;;;;;;;8.17;1.10;;;;;;;;;;5029884;28;20643;-70
2024/01/01 10:03:14;;;;;;;3.55;0.68;;;9.40;99.90;;;;;;5032385;28;20493;-71
2024/01/01 10:05:41;;;;;;;2.30;1.00;;;9.50;99.90;;;;;;5029596;28;20041;-72
2024/01/01 10:08:09;;;;;;;1.65;0.60;;;9.50;99.90;;;;;;5031862;28;20131;-71
2024/01/01 10:10:34;;;;;;;1.73;0.30;;;9.60;99.90;;;;;;5034940;28;20135;-71
2024/01/01 10:13:16;;;;;;;1.80;0.75;;;9.60;99.90;;;;;;5032845;28;20881;-72
2024/01/01 10:15:43;;;;;;;1.02;0.17;;;9.70;99.90;;;;;;5057321;28;20037;-71
2024/01/01 10:18:10;;;;;;;8.73;0.50;;;9.80;99.90;;;;;;5046702;28;20033;-72
2024/01/01 10:20:36;;;;;;;8.40;0.80;;;9.80;99.80;;;;;;5033432;28;20512;-72
2024/01/01 10:23:25;;;;;;;8.75;0.77;;;10.00;99.70;;;;;;5034495;28;20036;-71
2024/01/01 10:26:09;;;;;;;0.15;0.15;;;10.10;99.50;;;;;;5035025;28;20049;-72
2024/01/01 10:28:35;;;;;;;1.63;0.50;;;10.30;99.20;;;;;;5037374;28;20048;-71
2024/01/01 10:31:02;;;;;;;1.10;0.63;;;10.30;98.90;;;;;;5036890;28;20033;-73
2024/01/01 10:33:29;;;;;;;1.45;0.73;;;10.40;98.70;;;;;;5027112;28;20033;-70
2024/01/01 10:35:58;;;;;;;2.83;0.73;;;10.60;98.50;;;;;;5034258;28;20047;-72
2024/01/01 10:38:25;;;;;;;2.17;0.55;;;10.70;98.00;;;;;;5040968;28;20035;-71
2024/01/01 10:40:55;;;;;;;1.70;0.50;;;10.80;97.80;;;;;;5032070;28;20507;-72
2024/01/01 10:43:25;;;;;;;9.60;1.00;;;10.90;97.70;;;;;;5036705;28;20044;-70
2024/01/01 10:45:53;;;;;;;9.80;0.93;;;10.90;97.40;;;;;;5026705;28;20043;-71
2024/01/01 10:48:21;;;;;;;2.58;0.70;;;10.90;97.60;;;;;;5035613;28;20413;-72
2024/01/01 10:50:59;;;;;;;0.65;0.30;;;10.90;98.00;;;;;;5036721;28;20413;-71
2024/01/01 10:53:37;;;;;;;7.00;0.63;;;10.80;97.90;;;;;;5028781;28;20092;-72
2024/01/01 10:56:25;;;;;;;0.65;0.43;;;10.80;97.40;;;;;;5033482;28;20024;-72
2024/01/01 10:59:17;;;;;;;0.55;0.40;;;10.80;97.50;;;;;;5031419;28;20508;-71
2024/01/01 11:01:44;;;;;;;3.88;0.90;;;10.70;99.90;;;;;;5030906;28;20025;-72
2024/01/01 11:04:12;;;;;;;5.60;0.75;;;10.70;99.90;;;;;;5035573;28;20032;-71
2024/01/01 11:06:43;;;;;;;8.18;0.80;;;10.70;99.90;;;;;;5031294;28;21164;-72
2024/01/01 11:09:29;;;;;;;8.57;0.93;;;10.80;99.90;;;;;;5033642;28;20481;-71
2024/01/01 11:11:55;;;;;;;1.52;0.38;;;10.80;99.90;;;;;;5034427;28;20059;-71
2024/01/01 11:14:30;;;;;;;7.35;1.08;;;10.80;99.90;;;;;;5030527;28;20037;-71
2024/01/01 11:16:57;;;;;;;3.92;1.05;;;10.80;99.90;;;;;;5034702;28;20144;-71
2024/01/01 11:19:41;;;;;;;9.10;1.45;;;10.70;99.90;;;;;;5028668;28;20485;-71
2024/01/01 11:22:30;;;;;;;4.68;0.65;;;10.80;99.90;;;;;;5031411;28;20037;-72
2024/01/01 11:24:59;;;;;;;3.55;0.60;;;10.80;99.90;;;;;;5034936;28;20029;-72
2024/01/01 11:27:47;;;;;;;4.20;0.32;;;10.90;99.90;;;;;;5028521;28;20518;-70
2024/01/01 11:30:14;;;;;;;14.85;1.08;;;10.80;99.90;;;;;;5037635;28;20053;-71
2024/01/01 11:32:40;;;;;;;17.13;1.15;;;10.70;99.90;;;;;;5033704;28;20033;-72
2024/01/01 11:35:09;;;;;;;6.38;1.45;;;10.80;99.90;;;;;;5031911;28;20040;-71
2024/01/01 11:37:36;;;;;;;7.60;0.93;;;10.80;99.90;;;;;;5031558;28;20040;-71
2024/01/01 11:40:04;;;;;;;8.65;2.10;;;10.80;99.90;;;;;;5029314;28;20037;-71
2024/01/01 11:42:30;;;;;;;3.30;0.75;;;10.80;99.90;;;;;;5038279;28;20275;-70
2024/01/01 11:45:16;;;;;;;8.60;1.40;;;10.90;99.90;;;;;;5033522;28;20138;-73
2024/01/01 11:47:43;;;;;;;5.07;0.88;;;10.90;99.90;;;;;;5028977;28;20040;-72
2024/01/01 11:50:10;;;;;;;6.93;1.40;;;10.90;99.90;;;;;;5035630;28;20048;-71
2024/01/01 11:52:36;;;;;;;5.95;0.93;;;10.80;99.90;;;;;;5030812;28;20026;-72
2024/01/01 11:55:03;;;;;;;4.65;1.20;;;10.70;99.90;;;;;;5028569;28;20024;-71
2024/01/01 11:57:28;;;;;;;7.43;1.02;;;10.80;99.90;;;;;;5033040;28;20034;-72
2024/01/01 11:59:55;;;;;;;2.67;1.35;;;10.90;99.90;;;;;;5032326;28;20520;-71
2024/01/01 12:02:21;;;;;;;10.02;1.02;;;10.90;99.90;;;;;;5031041;28;20040;-72
2024/01/01 12:04:50;;;;;;;10.45;1.23;;;10.80;99.90;;;;;;5032714;28;20907;-71
2024/01/01 12:07:30;;;;;;;2.40;0.30;;;10.80;99.90;;;;;;5031532;28;20485;-70
2024/01/01 12:10:15;;;;;;;3.13;0.50;;;10.70;99.90;;;;;;5041323;28;20041;-70
2024/01/01 12:12:43;;;;;;;4.60;0.68;;;10.80;99.90;;;;;;5040836;28;20059;-72
2024/01/01 12:15:14;;;;;;;3.30;0.47;;;10.80;99.90;;;;;;5033550;28;20052;-71
2024/01/01 12:17:49;;;;;;;8.63;0.95;;;10.80;99.90;;;;;;5035137;28;20078;-71
2024/01/01 12:20:18;;;;;;;0.77;0.52;;;10.80;99.90;;;;;;5030972;28;20029;-72
2024/01/01 12:22:45;;;;;;;5.38;0.50;;;10.80;99.90;;;;;;5027247;28;20493;-70
2024/01/01 12:25:19;;;;;;;6.53;0.45;;;10.80;99.90;;;;;;5033112;28;20037;-70
2024/01/01 12:28:02;;;;;;;6.68;0.88;;;10.90;99.90;;;;;;5028735;28;20041;-72
2024/01/01 12:30:27;;;;;;;5.47;0.68;;;10.80;99.90;;;;;;5036101;28;20460;-72
2024/01/01 12:32:54;;;;;;;4.22;1.35;;;10.80;99.90;;;;;;5029980;28;20107;-71
2024/01/01 12:35:19;;;;;;;7.75;1.05;;;10.90;99.90;;;;;;5032277;28;20222;-72
2024/01/01 12:37:47;;;;;;;6.15;0.90;;;10.70;99.90;;;;;;5034159;28;20110;-71
2024/01/01 12:40:14;;;;;;;6.78;1.35;;;10.80;99.90;;;;;;5031794;28;20091;-72
2024/01/01 12:42:40;;;;;;;5.70;0.95;;;10.80;99.90;;;;;;5032448;28;20147;-72
2024/01/01 12:45:06;;;;;;;10.23;1.23;;;10.90;99.90;;;;;;5029577;28;20025;-72
2024/01/01 12:47:32;;;;;;;9.43;1.98;;;11.10;99.90;;;;;;5033279;28;20115;-72
2024/01/01 12:49:58;;;;;;;5.40;1.50;;;11.10;99.90;;;;;;5034159;28;20478;-71
2024/01/01 12:52:23;;;;;;;7.63;1.23;;;11.30;99.90;;;;;;5038302;28;20426;-71
2024/01/01 12:54:49;;;;;;;4.60;0.75;;;11.30;99.90;;;;;;5055161;28;20029;-71
2024/01/01 12:57:15;;;;;;;11.80;1.35;;;11.20;99.90;;;;;;5040016;28;20041;-71
2024/01/01 12:59:40;;;;;;;7.85;0.88;;;11.30;99.90;;;;;;5037651;28;20515;-72